createdAt,value
2023-04-15T00:01:01.509Z,99746.53
2023-04-15T00:03:30.144Z,99745.21
2023-04-15T00:05:58.922Z,99744.98
2023-04-15T00:08:27.482Z,99744.88
2023-04-15T00:10:55.640Z,99751.09
2023-04-15T00:13:23.797Z,99752.21
2023-04-15T00:15:52.382Z,99752.05
2023-04-15T00:18:20.360Z,99754.17
2023-04-15T00:20:48.855Z,99748.94
2023-04-15T00:23:18.182Z,99748.66
2023-04-15T00:25:46.490Z,99745.64
2023-04-15T00:28:14.557Z,99745.92
2023-04-15T00:30:44.562Z,99745.05
2023-04-15T00:33:13.960Z,99726.13
2023-04-15T00:35:42.137Z,99746.66
2023-04-15T00:38:10.392Z,99746.36
2023-04-15T00:40:38.623Z,99740.78
2023-04-15T00:43:07.186Z,99741.96
2023-04-15T00:45:35.722Z,99739.71
2023-04-15T00:48:04.686Z,99740.70
2023-04-15T00:50:33.476Z,99737.23
2023-04-15T00:53:01.653Z,99739.63
2023-04-15T00:55:29.810Z,99742.16
2023-04-15T00:57:58.181Z,99740.02
2023-04-15T01:00:27.065Z,99741.93
2023-04-15T01:02:55.166Z,99743.05
2023-04-15T01:05:23.727Z,99738.98
2023-04-15T01:07:51.992Z,99746.98
2023-04-15T01:10:19.945Z,99742.97
2023-04-15T01:12:48.172Z,99741.70
2023-04-15T01:15:16.400Z,99741.02
2023-04-15T01:17:44.821Z,99727.67
2023-04-15T01:20:13.448Z,99743.64
2023-04-15T01:22:41.780Z,99740.63
2023-04-15T01:25:13.263Z,99740.73
2023-04-15T01:27:42.684Z,99742.33
2023-04-15T01:30:11.620Z,99741.30
2023-04-15T01:32:39.661Z,99743.88
2023-04-15T01:35:07.973Z,99745.30
2023-04-15T01:37:36.931Z,99740.54
2023-04-15T01:40:05.531Z,99743.08
2023-04-15T01:42:34.103Z,99743.95
2023-04-15T01:45:02.818Z,99745.36
2023-04-15T01:47:31.298Z,99745.80
2023-04-15T01:49:59.278Z,99742.23
2023-04-15T01:52:27.339Z,99741.35
2023-04-15T01:54:55.275Z,99726.66
2023-04-15T01:57:23.417Z,99739.31
2023-04-15T01:59:54.360Z,99741.11
2023-04-15T02:02:22.963Z,99739.87
2023-04-15T02:04:51.341Z,99739.20
2023-04-15T02:07:20.959Z,99735.95
2023-04-15T02:09:48.985Z,99736.52
2023-04-15T02:12:17.083Z,99722.09
2023-04-15T02:14:46.306Z,99733.48
2023-04-15T02:17:14.221Z,99734.83
2023-04-15T02:19:44.698Z,99732.48
2023-04-15T02:22:18.705Z,99731.91
2023-04-15T02:24:47.897Z,99737.16
2023-04-15T02:27:17.366Z,99733.89
2023-04-15T02:29:46.065Z,99735.03
2023-04-15T02:32:14.640Z,99736.24
2023-04-15T02:34:43.030Z,99733.39
2023-04-15T02:37:12.565Z,99732.17
2023-04-15T02:39:40.680Z,99735.15
2023-04-15T02:42:08.743Z,99731.38
2023-04-15T02:44:38.153Z,99734.02
2023-04-15T02:47:07.721Z,99733.55
2023-04-15T02:49:35.883Z,99733.02
2023-04-15T02:52:04.066Z,99734.67
2023-04-15T02:54:34.301Z,99731.09
2023-04-15T02:57:04.098Z,99732.02
2023-04-15T02:59:32.324Z,99730.72
2023-04-15T03:02:57.358Z,99729.04
2023-04-15T03:05:44.611Z,99730.27
2023-04-15T03:08:14.911Z,99730.36
2023-04-15T03:10:42.870Z,99727.53
2023-04-15T03:13:11.399Z,99731.23
2023-04-15T03:15:40.081Z,99727.73
2023-04-15T03:18:08.232Z,99731.97
2023-04-15T03:20:36.638Z,99734.67
2023-04-15T03:23:05.347Z,99733.96
2023-04-15T03:25:33.435Z,99737.43
2023-04-15T03:28:01.580Z,99738.08
2023-04-15T03:30:29.684Z,99736.61
2023-04-15T03:32:57.939Z,99737.26
2023-04-15T03:35:27.120Z,99735.14
2023-04-15T03:37:57.480Z,99733.98
2023-04-15T03:40:26.700Z,99729.53
2023-04-15T03:42:54.793Z,99731.29
2023-04-15T03:45:22.829Z,99733.20
2023-04-15T03:47:51.244Z,99732.58
2023-04-15T03:50:19.422Z,99733.00
2023-04-15T03:52:48.290Z,99733.40
2023-04-15T03:55:17.652Z,99735.80
2023-04-15T03:57:46.089Z,99736.67
2023-04-15T04:00:14.246Z,99738.02
2023-04-15T04:02:42.317Z,99737.85
2023-04-15T04:05:10.860Z,99738.67
2023-04-15T04:07:38.881Z,99736.38
2023-04-15T04:10:07.305Z,99738.83
2023-04-15T04:12:35.424Z,99741.09
2023-04-15T04:15:03.940Z,99745.49
2023-04-15T04:17:31.988Z,99743.72
2023-04-15T04:20:00.211Z,99743.93
2023-04-15T04:22:28.295Z,99749.23
2023-04-15T04:24:56.842Z,99745.84
2023-04-15T04:27:25.571Z,99741.44
2023-04-15T04:29:53.480Z,99744.83
2023-04-15T04:32:21.931Z,99743.02
2023-04-15T04:34:50.145Z,99745.64
2023-04-15T04:37:18.304Z,99745.77
2023-04-15T04:39:46.290Z,99744.61
2023-04-15T04:42:14.459Z,99749.25
2023-04-15T04:44:42.933Z,99746.02
2023-04-15T04:47:11.588Z,99743.36
2023-04-15T04:49:39.861Z,99745.55
2023-04-15T04:52:08.007Z,99745.42
2023-04-15T04:54:35.993Z,99745.42
2023-04-15T04:57:05.082Z,99746.29
2023-04-15T04:59:33.355Z,99745.37
2023-04-15T05:02:01.581Z,99741.17
2023-04-15T05:04:29.694Z,99741.75
2023-04-15T05:06:58.506Z,99746.30
2023-04-15T05:09:26.680Z,99748.42
2023-04-15T05:11:54.657Z,99750.02
2023-04-15T05:14:23.403Z,99746.67
2023-04-15T05:16:51.584Z,99751.91
2023-04-15T05:19:19.603Z,99741.29
2023-04-15T05:21:47.596Z,99745.40
2023-04-15T05:24:15.727Z,99754.36
2023-04-15T05:26:44.057Z,99754.77
2023-04-15T05:29:12.123Z,99754.23
2023-04-15T05:31:40.234Z,99753.67
2023-04-15T05:34:08.715Z,99755.48
2023-04-15T05:36:36.839Z,99758.19
2023-04-15T05:39:04.982Z,99755.14
2023-04-15T05:41:33.207Z,99754.56
2023-04-15T05:44:01.652Z,99759.44
2023-04-15T05:46:29.623Z,99761.84
2023-04-15T05:48:57.847Z,99760.89
2023-04-15T05:51:26.599Z,99760.48
2023-04-15T05:53:54.648Z,99765.67
2023-04-15T05:56:22.819Z,99765.13
2023-04-15T05:58:53.367Z,99762.11
2023-04-15T06:01:22.437Z,99768.29
2023-04-15T06:03:51.390Z,99764.78
2023-04-15T06:06:20.639Z,99763.43
2023-04-15T06:08:48.473Z,99766.63
2023-04-15T06:11:16.488Z,99762.61
2023-04-15T06:13:44.743Z,99767.95
2023-04-15T06:16:12.695Z,99769.20
2023-04-15T06:18:40.811Z,99769.54
2023-04-15T06:21:08.973Z,99775.05
2023-04-15T06:23:37.244Z,99775.46
2023-04-15T06:26:05.515Z,99781.45
2023-04-15T06:28:33.592Z,99781.11
2023-04-15T06:31:02.126Z,99784.48
2023-04-15T06:33:30.847Z,99782.70
2023-04-15T06:35:59.234Z,99785.33
2023-04-15T06:38:27.135Z,99786.20
2023-04-15T06:40:55.574Z,99785.16
2023-04-15T06:43:23.714Z,99787.89
2023-04-15T06:45:51.850Z,99788.11
2023-04-15T06:48:19.983Z,99786.76
2023-04-15T06:50:48.360Z,99791.30
2023-04-15T06:53:16.354Z,99789.11
2023-04-15T06:55:45.002Z,99788.58
2023-04-15T06:58:15.405Z,99793.48
2023-04-15T07:00:43.564Z,99793.25
2023-04-15T07:03:13.281Z,99799.54
2023-04-15T07:05:41.871Z,99798.52
2023-04-15T07:08:09.812Z,99806.02
2023-04-15T07:10:38.265Z,99806.93
2023-04-15T07:13:07.530Z,99809.42
2023-04-15T07:15:35.856Z,99758.96
2023-04-15T07:18:04.376Z,99812.73
2023-04-15T07:20:32.656Z,99816.40
2023-04-15T07:23:00.694Z,99815.35
2023-04-15T07:25:28.748Z,99820.56
2023-04-15T07:27:57.174Z,99816.23
2023-04-15T07:30:25.286Z,99816.67
2023-04-15T07:32:53.483Z,99816.92
2023-04-15T07:35:21.856Z,99815.80
2023-04-15T07:37:49.949Z,99818.42
2023-04-15T07:40:18.348Z,99815.75
2023-04-15T07:42:48.595Z,99814.79
2023-04-15T07:45:17.005Z,99812.14
2023-04-15T07:47:45.006Z,99811.39
2023-04-15T07:50:13.135Z,99815.84
2023-04-15T07:52:43.182Z,99813.28
2023-04-15T07:55:11.677Z,99814.76
2023-04-15T07:57:39.744Z,99812.39
2023-04-15T08:00:10.594Z,99815.80
2023-04-15T08:02:41.950Z,99814.60
2023-04-15T08:05:11.009Z,99816.80
2023-04-15T08:07:39.027Z,99815.52
2023-04-15T08:10:10.696Z,99815.75
2023-04-15T08:12:44.936Z,99816.41
2023-04-15T09:34:38.271Z,99824.57
2023-04-15T09:37:08.118Z,99830.55
2023-04-15T09:39:50.366Z,99832.30
2023-04-15T09:42:27.500Z,99831.21
2023-04-15T09:44:55.589Z,99822.59
2023-04-15T09:47:33.051Z,99831.26
2023-04-15T09:50:02.525Z,99837.89
2023-04-15T09:52:32.169Z,99835.88
2023-04-15T09:55:01.092Z,99834.23
2023-04-15T09:57:36.921Z,99835.92
2023-04-15T10:00:08.420Z,99837.25
2023-04-15T10:02:40.902Z,99837.83
2023-04-15T10:05:14.991Z,99841.45
2023-04-15T10:07:43.765Z,99842.83
2023-04-15T10:10:16.276Z,99839.13
2023-04-15T10:12:45.603Z,99847.24
2023-04-15T10:15:17.891Z,99847.55
2023-04-15T10:17:48.304Z,99844.41
2023-04-15T10:20:19.986Z,99848.54
2023-04-15T10:22:50.205Z,99850.72
2023-04-15T10:25:19.285Z,99847.63
2023-04-15T10:27:49.883Z,99848.43
2023-04-15T10:30:25.936Z,99851.30
2023-04-15T10:32:55.587Z,99849.94
2023-04-15T10:35:25.193Z,99850.08
2023-04-15T10:37:56.374Z,99847.41
2023-04-15T10:40:35.300Z,99849.52
2023-04-15T10:43:03.927Z,99850.16
2023-04-15T10:45:39.422Z,99848.43
2023-04-15T10:48:09.209Z,99850.12
2023-04-15T10:50:40.276Z,99850.35
2023-04-15T10:53:11.299Z,99853.45
2023-04-15T10:55:39.379Z,99854.02
2023-04-15T10:58:10.524Z,99854.85
2023-04-15T11:00:40.309Z,99857.97
2023-04-15T11:03:10.114Z,99856.81
2023-04-15T11:05:41.732Z,99848.75
2023-04-15T11:08:12.950Z,99846.36
2023-04-15T11:10:41.144Z,99856.02
2023-04-15T11:13:12.039Z,99858.45
2023-04-15T11:16:05.262Z,99856.52
2023-04-15T11:18:34.808Z,99858.98
2023-04-15T11:21:07.875Z,99853.58
2023-04-15T11:23:39.920Z,99857.02
2023-04-15T11:26:12.218Z,99859.27
2023-04-15T11:28:42.898Z,99852.35
2023-04-15T11:31:13.561Z,99862.55
2023-04-15T11:33:56.664Z,99867.09
2023-04-15T11:36:30.478Z,99868.58
2023-04-15T11:38:59.778Z,99864.93
2023-04-15T11:41:28.926Z,99866.55
2023-04-15T11:43:56.914Z,99866.81
2023-04-15T11:46:32.163Z,99860.65
2023-04-15T11:49:01.778Z,99864.80
2023-04-15T11:51:34.276Z,99866.80
2023-04-15T11:54:03.001Z,99868.27
2023-04-15T11:56:32.128Z,99871.39
2023-04-15T11:59:00.335Z,99868.02
2023-04-15T12:01:46.687Z,99873.39
2023-04-15T12:04:25.362Z,99877.05
2023-04-15T12:06:54.188Z,99875.67
2023-04-15T12:09:22.326Z,99882.85
2023-04-15T12:11:57.727Z,99889.63
2023-04-15T12:14:31.278Z,99885.77
2023-04-15T12:17:01.613Z,99885.66
2023-04-15T12:19:43.355Z,99886.02
2023-04-15T12:22:13.102Z,99893.06
2023-04-15T12:24:52.516Z,99890.54
2023-04-15T12:27:21.375Z,99894.58
2023-04-15T12:29:49.813Z,99897.54
2023-04-15T12:32:21.610Z,99898.09
2023-04-15T12:34:52.390Z,99899.20
2023-04-15T12:37:22.282Z,99901.70
2023-04-15T12:39:51.660Z,99906.56
2023-04-15T12:42:20.737Z,99906.95
2023-04-15T12:44:48.707Z,99909.97
2023-04-15T12:47:16.823Z,99911.77
2023-04-15T12:49:45.868Z,99915.85
2023-04-15T12:52:16.683Z,99917.61
2023-04-15T12:54:44.938Z,99915.20
2023-04-15T12:57:12.988Z,99911.44
2023-04-15T12:59:41.197Z,99915.80
2023-04-15T13:02:09.225Z,99912.61
2023-04-15T13:04:37.587Z,99916.80
2023-04-15T13:07:05.782Z,99920.28
2023-04-15T13:09:34.141Z,99905.67
2023-04-15T13:12:02.224Z,99918.16
2023-04-15T13:14:31.263Z,99916.73
2023-04-15T13:16:59.495Z,99913.56
2023-04-15T13:19:27.919Z,99914.23
2023-04-15T13:21:56.246Z,99911.01
2023-04-15T13:24:24.232Z,99917.21
2023-04-15T13:26:53.710Z,99920.34
2023-04-15T13:29:22.328Z,99922.45
2023-04-15T13:31:50.594Z,99915.38
2023-04-15T13:34:18.957Z,99933.67
2023-04-15T13:36:47.335Z,99940.33
2023-04-15T13:39:15.489Z,99943.50
2023-04-15T13:41:43.646Z,99943.59
2023-04-15T13:44:12.785Z,99946.13
2023-04-15T13:46:42.765Z,99946.98
2023-04-15T13:49:10.947Z,99948.92
2023-04-15T13:51:38.928Z,99954.30
2023-04-15T13:54:07.155Z,99949.98
2023-04-15T13:56:35.575Z,99952.58
2023-04-15T13:59:03.853Z,99954.92
2023-04-15T14:01:32.225Z,99959.65
2023-04-15T14:04:00.569Z,99964.77
2023-04-15T14:06:29.121Z,99963.63
2023-04-15T14:08:57.370Z,99964.54
2023-04-15T14:11:25.372Z,99964.83
2023-04-15T14:13:56.068Z,99966.73
2023-04-15T14:16:24.325Z,99965.71
2023-04-15T14:18:52.666Z,99965.69
2023-04-15T14:21:21.025Z,99967.67
2023-04-15T14:23:49.055Z,99969.86
2023-04-15T14:26:17.125Z,99970.81
2023-04-15T14:28:45.266Z,99973.09
2023-04-15T14:31:14.349Z,99977.63
2023-04-15T14:33:45.018Z,99972.81
2023-04-15T14:36:13.276Z,99970.73
2023-04-15T14:38:41.492Z,99967.85
2023-04-15T14:41:10.253Z,99965.27
2023-04-15T14:43:39.434Z,99974.74
2023-04-15T14:46:08.627Z,99973.19
2023-04-15T14:48:37.173Z,99970.73
2023-04-15T14:51:08.693Z,99967.34
2023-04-15T14:53:36.714Z,99969.60
2023-04-15T14:56:05.376Z,99975.41
2023-04-15T14:58:33.610Z,99978.09
2023-04-15T15:01:03.061Z,99982.77
2023-04-15T15:03:34.084Z,99983.19
2023-04-15T15:06:02.413Z,99984.26
2023-04-15T15:08:30.593Z,99984.36
2023-04-15T15:10:58.856Z,99991.73
2023-04-15T15:13:26.948Z,100001.81
2023-04-15T15:15:55.184Z,100008.07
2023-04-15T15:18:25.721Z,100012.16
2023-04-15T15:20:53.796Z,100006.59
2023-04-15T15:23:21.724Z,100017.89
2023-04-15T15:25:50.012Z,100017.70
2023-04-15T15:28:18.302Z,100013.30
2023-04-15T15:30:46.307Z,100011.62
2023-04-15T15:33:14.376Z,100009.80
2023-04-15T15:35:42.505Z,100008.28
2023-04-15T15:38:12.237Z,100010.99
2023-04-15T15:40:40.551Z,99999.30
2023-04-15T15:43:09.020Z,100006.41
2023-04-15T15:45:37.045Z,99998.17
2023-04-15T15:48:06.026Z,100009.59
2023-04-15T15:50:34.542Z,100007.02
2023-04-15T15:53:02.560Z,100003.02
2023-04-15T15:55:30.719Z,100004.58
2023-04-15T15:57:58.651Z,100009.33
2023-04-15T16:00:26.519Z,100011.55
2023-04-15T16:05:28.588Z,100019.68
2023-04-15T16:07:56.699Z,100024.33
2023-04-15T16:10:24.754Z,100024.66
2023-04-15T16:12:52.921Z,100027.91
2023-04-15T16:15:23.940Z,100034.08
2023-04-15T16:17:52.359Z,100033.02
2023-04-15T16:20:20.718Z,100035.93
2023-04-15T16:22:48.818Z,100036.15
2023-04-15T16:25:16.943Z,100039.52
2023-04-15T16:27:57.637Z,100049.10
2023-04-15T16:30:27.470Z,100053.30
2023-04-15T16:32:55.537Z,100055.95
2023-04-15T16:35:23.484Z,100057.88
2023-04-15T16:37:51.531Z,100058.77
2023-04-15T16:40:19.744Z,100060.77
2023-04-15T16:42:48.437Z,100067.81
2023-04-15T16:45:20.006Z,100070.28
2023-04-15T16:47:48.127Z,100074.23
2023-04-15T16:50:19.011Z,100076.09
2023-04-15T16:52:47.413Z,100079.04
2023-04-15T16:55:15.869Z,100084.88
2023-04-15T16:58:03.240Z,100085.51
2023-04-15T17:00:33.237Z,100086.02
2023-04-15T17:03:01.511Z,100093.52
2023-04-15T17:05:31.969Z,100098.42
2023-04-15T17:08:00.400Z,100106.78
2023-04-15T17:10:28.310Z,100110.11
2023-04-15T17:12:57.678Z,100112.98
2023-04-15T17:15:26.700Z,100119.86
2023-04-15T17:17:54.924Z,100118.84
2023-04-15T17:20:23.100Z,100117.72
2023-04-15T17:22:51.583Z,100102.99
2023-04-15T17:25:19.656Z,100124.06
2023-04-15T17:27:47.612Z,100123.00
2023-04-15T17:30:16.009Z,100129.00
2023-04-15T17:32:44.329Z,100128.05
2023-04-15T17:35:12.455Z,100127.27
2023-04-15T17:37:41.113Z,100130.50
2023-04-15T17:40:09.516Z,100131.21
2023-04-15T17:42:37.392Z,100134.27
2023-04-15T17:45:07.502Z,100132.23
2023-04-15T17:47:35.649Z,100138.56
2023-04-15T17:50:03.853Z,100151.13
2023-04-15T17:52:32.185Z,100155.23
2023-04-15T17:55:00.391Z,100159.91
2023-04-15T17:57:28.881Z,100133.39
2023-04-15T17:59:57.647Z,100177.47
2023-04-15T18:02:25.835Z,100180.61
2023-04-15T18:04:54.236Z,100180.98
2023-04-15T18:07:26.047Z,100183.22
2023-04-15T18:09:56.068Z,100188.59
2023-04-15T18:12:24.204Z,100187.10
2023-04-15T18:14:52.971Z,100192.13
2023-04-15T18:17:21.034Z,100196.95
2023-04-15T18:19:49.144Z,100199.55
2023-04-15T18:22:17.740Z,100199.30
2023-04-15T18:24:45.878Z,100201.17
2023-04-15T18:27:18.399Z,100205.38
2023-04-15T18:29:47.464Z,100212.75
2023-04-15T18:32:15.420Z,100214.02
2023-04-15T18:34:43.647Z,100213.88
2023-04-15T18:37:11.871Z,100217.43
2023-04-15T18:39:39.916Z,100220.17
2023-04-15T18:42:08.125Z,100224.39
2023-04-15T18:44:36.126Z,100226.52
2023-04-15T18:47:04.317Z,100225.36
2023-04-15T18:49:33.413Z,100227.67
2023-04-15T18:52:01.378Z,100226.27
2023-04-15T18:54:30.753Z,100228.16
2023-04-15T18:57:02.281Z,100229.73
2023-04-15T18:59:31.978Z,100236.05
2023-04-15T19:02:01.507Z,100245.35
2023-04-15T19:04:29.978Z,100249.17
2023-04-15T19:06:59.344Z,100254.16
2023-04-15T19:09:28.973Z,100253.84
2023-04-15T19:11:57.809Z,100262.50
2023-04-15T19:14:25.996Z,100264.11
2023-04-15T19:16:54.283Z,100263.59
2023-04-15T19:19:22.558Z,100265.20
2023-04-15T19:21:51.190Z,100268.85
2023-04-15T19:24:20.126Z,100255.58
2023-04-15T19:26:52.633Z,100271.17
2023-04-15T19:29:22.036Z,100274.65
2023-04-15T19:31:50.720Z,100275.23
2023-04-15T19:34:18.716Z,100277.43
2023-04-15T19:36:46.911Z,100286.61
2023-04-15T19:39:14.842Z,100287.34
2023-04-15T19:41:44.503Z,100290.08
2023-04-15T19:44:13.849Z,100294.96
2023-04-15T19:46:44.245Z,100292.67
2023-04-15T19:49:12.537Z,100295.32
2023-04-15T19:51:41.600Z,100296.88
2023-04-15T19:54:09.483Z,100299.89
2023-04-15T19:56:37.514Z,100286.40
2023-04-15T19:59:06.039Z,100306.33
2023-04-15T20:01:34.081Z,100309.09
2023-04-15T20:04:04.206Z,100309.94
2023-04-15T20:06:32.852Z,100308.75
2023-04-15T20:09:01.132Z,100311.67
2023-04-15T20:12:45.606Z,100311.39
2023-04-15T20:14:17.937Z,100310.33
2023-04-15T20:16:46.265Z,100307.41
2023-04-15T20:19:14.749Z,100309.64
2023-04-15T20:21:43.130Z,100311.81
2023-04-15T20:24:11.243Z,100294.42
2023-04-15T20:26:39.795Z,100309.61
2023-04-15T20:29:08.906Z,100315.06
2023-04-15T20:31:40.122Z,100311.24
2023-04-15T20:34:10.658Z,100310.09
2023-04-15T20:36:39.971Z,100311.77
2023-04-15T20:39:08.141Z,100310.15
2023-04-15T20:41:36.097Z,100314.94
2023-04-15T20:44:04.301Z,100311.55
2023-04-15T20:46:32.390Z,100313.55
2023-04-15T20:49:01.012Z,100308.19
2023-04-15T20:51:33.114Z,100313.34
2023-04-15T20:54:01.439Z,100316.57
2023-04-15T20:56:29.547Z,100316.73
2023-04-15T20:58:57.743Z,100318.37
2023-04-15T21:01:26.062Z,100318.67
2023-04-15T21:03:54.174Z,100295.81
2023-04-15T21:06:22.261Z,100317.84
2023-04-15T21:08:52.602Z,100314.23
2023-04-15T21:11:38.811Z,100317.85
2023-04-15T21:14:09.371Z,100319.95
2023-04-15T21:16:37.388Z,100324.33
2023-04-15T21:19:05.723Z,100325.52
2023-04-15T21:21:34.154Z,100326.65
2023-04-15T21:24:02.370Z,100335.35
2023-04-15T21:26:30.392Z,100330.86
2023-04-15T21:28:58.606Z,100333.05
2023-04-15T21:31:26.647Z,100335.20
2023-04-15T21:33:54.565Z,100338.98
2023-04-15T21:36:22.643Z,100340.27
2023-04-15T21:38:50.753Z,100343.48
2023-04-15T21:41:18.694Z,100344.21
2023-04-15T21:43:47.243Z,100342.65
2023-04-15T21:46:24.217Z,100347.23
2023-04-15T21:48:53.701Z,100350.46
2023-04-15T21:51:21.822Z,100346.50
2023-04-15T21:53:49.674Z,100350.58
2023-04-15T21:56:18.008Z,100354.18
2023-04-15T21:58:46.303Z,100357.33
2023-04-15T22:01:14.434Z,100356.56
2023-04-15T22:03:42.799Z,100357.45
2023-04-15T22:06:11.176Z,100354.98
2023-04-15T22:08:52.562Z,100356.77
2023-04-15T22:11:28.689Z,100361.97
2023-04-15T22:13:57.870Z,100360.86
2023-04-15T22:16:26.690Z,100365.15
2023-04-15T22:18:55.734Z,100370.98
2023-04-15T22:21:23.935Z,100375.23
2023-04-15T22:24:38.792Z,100376.52
2023-04-15T22:26:41.952Z,100384.69
2023-04-15T22:29:10.741Z,100390.45
2023-04-15T22:31:38.789Z,100393.14
2023-04-15T22:34:06.908Z,100395.44
2023-04-15T22:36:35.134Z,100394.00
2023-04-15T22:39:03.175Z,100392.63
2023-04-15T22:41:31.368Z,100398.35
2023-04-15T22:43:59.521Z,100401.08
2023-04-15T22:46:27.514Z,100402.05
2023-04-15T22:48:55.909Z,100403.69
2023-04-15T22:51:28.028Z,100405.08
2023-04-15T22:53:56.577Z,100404.73
2023-04-15T22:56:24.776Z,100407.05
2023-04-15T22:58:52.736Z,100405.75
2023-04-15T23:01:21.508Z,100405.68
2023-04-15T23:03:56.304Z,100406.56
2023-04-15T23:06:25.820Z,100402.70
2023-04-15T23:08:54.322Z,100408.87
2023-04-15T23:11:22.422Z,100409.44
2023-04-15T23:13:50.919Z,100413.30
2023-04-15T23:16:19.054Z,100414.62
2023-04-15T23:18:47.012Z,100403.63
2023-04-15T23:21:15.159Z,100411.67
2023-04-15T23:23:43.169Z,100407.98
2023-04-15T23:26:11.015Z,100411.33
2023-04-15T23:28:39.157Z,100407.42
2023-04-15T23:31:07.241Z,100407.42
2023-04-15T23:33:35.208Z,100412.72
2023-04-15T23:36:06.710Z,100413.95
2023-04-15T23:38:35.456Z,100412.53
2023-04-15T23:41:03.446Z,100411.26
2023-04-15T23:43:31.687Z,100414.77
2023-04-15T23:45:59.748Z,100412.10
2023-04-15T23:48:27.679Z,100413.14
2023-04-15T23:50:56.232Z,100414.72
2023-04-15T23:53:24.322Z,100412.80
2023-04-15T23:55:52.174Z,100416.81
2023-04-15T23:58:20.443Z,100416.90
